Time;durP1;ratioP1;P1;durP2;ratioP2;P2;SDS_P1;SDS_P2;PMS_P1;PMS_P2;Temp;Humidity;BMP_temperature;BMP_pressure;BME280_temperature;BME280_humidity;BME280_pressure;Samples;Min_cycle;Max_cycle;Signal;HPM_P1;HPM_P2
2021/10/05 00:01:10;;;;;;;4.32;1.10;;;14.50;99.90;14.60;100664.00;;;;4975784;28;88093;-65
2021/10/05 00:03:36;;;;;;;4.03;1.00;;;14.50;99.90;14.60;100655.00;;;;4976703;28;87905;-64
2021/10/05 00:06:02;;;;;;;3.08;1.10;;;14.50;99.90;14.60;100662.00;;;;4977184;28;92799;-65
2021/10/05 00:08:28;;;;;;;0.70;0.70;;;14.50;99.90;14.60;100662.00;;;;4976599;28;87727;-64
2021/10/05 00:10:55;;;;;;;1.17;0.80;;;14.50;99.90;14.60;100658.00;;;;4972609;28;108519;-64
2021/10/05 00:13:21;;;;;;;1.10;1.00;;;14.50;99.90;14.60;100655.00;;;;4956392;28;89516;-66
2021/10/05 00:15:48;;;;;;;0.80;0.80;;;14.50;99.90;14.50;100660.00;;;;4957672;28;88952;-64
2021/10/05 00:18:14;;;;;;;1.50;1.17;;;14.50;99.90;14.50;100645.00;;;;4957498;28;87724;-64
2021/10/05 00:20:39;;;;;;;0.60;0.60;;;14.50;99.90;14.50;100643.00;;;;4956048;28;108070;-64
2021/10/05 00:23:05;;;;;;;3.03;1.07;;;14.50;99.90;14.50;100638.00;;;;4974281;28;117818;-64
2021/10/05 00:25:31;;;;;;;2.27;0.93;;;14.40;99.90;14.50;100629.00;;;;4975912;28;118352;-65
2021/10/05 00:27:57;;;;;;;1.03;0.80;;;14.50;99.90;14.50;100627.00;;;;4971090;28;111602;-65
2021/10/05 00:30:22;;;;;;;1.47;0.73;;;14.40;99.90;14.50;100618.00;;;;4979889;28;87062;-64
2021/10/05 00:32:48;;;;;;;3.45;1.17;;;14.40;99.90;14.50;100621.00;;;;4976299;28;117445;-66
2021/10/05 00:35:14;;;;;;;2.83;0.97;;;14.40;99.90;14.50;100627.00;;;;4975085;28;117161;-64
2021/10/05 00:37:40;;;;;;;0.40;0.40;;;14.40;99.90;14.50;100619.00;;;;4975280;28;107688;-66
2021/10/05 00:40:07;;;;;;;1.83;1.03;;;14.40;99.90;14.50;100608.00;;;;4962219;28;87900;-65
2021/10/05 00:42:33;;;;;;;0.83;0.50;;;14.40;99.90;14.50;100599.00;;;;4957036;28;100093;-65
2021/10/05 00:44:59;;;;;;;1.40;1.03;;;14.40;99.90;14.50;100595.00;;;;4937259;28;110239;-64
2021/10/05 00:47:25;;;;;;;0.53;0.53;;;14.40;99.90;14.50;100594.00;;;;4955302;28;111322;-65
2021/10/05 00:49:51;;;;;;;5.05;1.52;;;14.40;99.90;14.50;100603.00;;;;4956372;28;87995;-64
2021/10/05 00:52:18;;;;;;;1.00;0.80;;;14.40;99.90;14.50;100591.00;;;;4955714;28;116571;-64
2021/10/05 00:54:45;;;;;;;0.53;0.53;;;14.40;99.90;14.50;100591.00;;;;4955806;28;87899;-64
2021/10/05 00:57:12;;;;;;;1.07;0.93;;;14.40;99.90;14.50;100579.00;;;;4956656;28;87655;-64
2021/10/05 00:59:38;;;;;;;1.00;0.70;;;14.40;99.90;14.50;100590.00;;;;4974752;28;87879;-64
2021/10/05 01:02:13;;;;;;;1.70;0.80;;;14.40;99.90;14.50;100588.00;;;;4956779;28;119264;-65
2021/10/05 01:04:40;;;;;;;2.03;1.30;;;14.50;99.90;14.50;100591.00;;;;4955835;28;92885;-65
2021/10/05 01:07:15;;;;;;;3.13;0.87;;;14.50;99.90;14.50;100596.00;;;;4964592;28;87583;-66
2021/10/05 01:09:41;;;;;;;1.57;0.73;;;14.50;99.90;14.60;100581.00;;;;4964150;28;87577;-67
2021/10/05 01:12:07;;;;;;;0.70;0.63;;;14.50;99.90;14.60;100583.00;;;;4975273;28;118053;-66
2021/10/05 01:14:33;;;;;;;1.07;0.93;;;14.50;99.90;14.60;100572.00;;;;4973564;28;98430;-65
2021/10/05 01:17:02;;;;;;;2.10;0.70;;;14.50;99.90;14.60;100577.00;;;;4975849;28;87888;-67
2021/10/05 01:19:28;;;;;;;9.63;1.10;;;14.50;99.90;14.60;100563.00;;;;4974992;28;92155;-66
2021/10/05 01:21:55;;;;;;;0.70;0.70;;;14.50;99.90;14.60;100559.00;;;;4973745;28;87979;-66
2021/10/05 01:24:22;;;;;;;0.83;0.77;;;14.50;99.90;14.60;100555.00;;;;4956107;28;95308;-65
2021/10/05 01:26:49;;;;;;;0.70;0.70;;;14.50;99.90;14.60;100557.00;;;;4959342;28;88674;-67
2021/10/05 01:29:18;;;;;;;1.03;0.93;;;14.50;99.90;14.60;100561.00;;;;4959866;28;89090;-65
2021/10/05 01:31:51;;;;;;;1.13;0.80;;;14.50;99.90;14.60;100562.00;;;;4959763;28;89376;-65
2021/10/05 01:34:20;;;;;;;1.30;0.60;;;14.60;99.90;14.60;100550.00;;;;4962511;28;87933;-64
2021/10/05 01:36:47;;;;;;;1.00;0.70;;;14.50;99.90;14.60;100537.00;;;;4979133;28;87878;-65
2021/10/05 01:39:21;;;;;;;0.80;0.80;;;14.60;99.90;14.60;100538.00;;;;4979337;28;87773;-66
2021/10/05 01:41:48;;;;;;;3.13;0.70;;;14.60;99.90;14.60;100538.00;;;;4978514;28;88876;-65
2021/10/05 01:44:14;;;;;;;1.57;0.80;;;14.60;99.90;14.60;100540.00;;;;4979395;28;88949;-66
2021/10/05 01:46:40;;;;;;;2.10;0.90;;;14.50;99.90;14.50;100544.00;;;;4960348;28;100389;-64
2021/10/05 01:49:05;;;;;;;0.60;0.60;;;14.60;99.90;14.50;100538.00;;;;4967232;28;108048;-65
2021/10/05 01:51:31;;;;;;;1.00;0.93;;;14.40;99.90;14.50;100532.00;;;;4957811;28;119167;-64
2021/10/05 01:53:57;;;;;;;1.20;0.70;;;14.40;99.90;14.40;100527.00;;;;4957563;28;119548;-64
2021/10/05 01:56:22;;;;;;;1.60;0.87;;;14.40;99.90;14.30;100527.00;;;;4970469;28;109535;-65
2021/10/05 01:58:48;;;;;;;1.00;0.80;;;14.30;99.90;14.20;100523.00;;;;4978093;28;109815;-65
2021/10/05 02:01:14;;;;;;;1.90;0.87;;;14.20;99.90;14.10;100511.00;;;;4977537;28;118756;-65
2021/10/05 02:03:40;;;;;;;2.93;0.93;;;14.10;99.90;14.00;100514.00;;;;4962594;28;87801;-67
2021/10/05 02:06:06;;;;;;;2.73;0.63;;;14.00;99.90;14.00;100516.00;;;;4958222;28;111021;-67
2021/10/05 02:08:32;;;;;;;1.50;0.87;;;14.00;99.90;13.90;100503.00;;;;4959775;28;100488;-68
2021/10/05 02:10:58;;;;;;;1.67;0.77;;;13.90;99.90;13.80;100504.00;;;;4958897;28;104172;-68
2021/10/05 02:13:23;;;;;;;1.90;1.17;;;13.80;99.90;13.70;100504.00;;;;4966141;28;117943;-69
2021/10/05 02:15:49;;;;;;;2.17;0.80;;;13.70;99.90;13.70;100492.00;;;;4977381;28;110698;-70
2021/10/05 02:18:15;;;;;;;0.60;0.60;;;13.70;99.90;13.60;100494.00;;;;4977716;28;91102;-69
2021/10/05 02:20:41;;;;;;;2.93;1.30;;;13.60;99.90;13.50;100484.00;;;;4959022;28;92349;-72
2021/10/05 02:23:07;;;;;;;1.77;1.00;;;13.50;99.90;13.40;100462.00;;;;4977762;28;89203;-73
2021/10/05 02:25:32;;;;;;;0.60;0.50;;;13.50;99.90;13.40;100453.00;;;;4976354;28;110575;-73
2021/10/05 02:27:58;;;;;;;2.70;0.90;;;13.40;99.90;13.30;100451.00;;;;4972572;28;87714;-71
2021/10/05 02:30:24;;;;;;;1.73;0.80;;;13.30;99.90;13.30;100446.00;;;;4966349;28;93313;-70
2021/10/05 02:32:49;;;;;;;2.80;1.20;;;13.30;99.90;13.20;100427.00;;;;4977167;28;118044;-72
2021/10/05 02:35:15;;;;;;;2.07;1.00;;;13.20;99.90;13.10;100422.00;;;;4976295;28;87847;-71
2021/10/05 02:37:41;;;;;;;1.00;0.87;;;13.10;99.90;13.10;100430.00;;;;4974088;28;87951;-72
2021/10/05 02:40:10;;;;;;;1.30;1.10;;;13.10;99.90;13.00;100419.00;;;;4929661;28;91425;-71
2021/10/05 02:42:36;;;;;;;1.97;1.10;;;13.10;99.90;13.00;100409.00;;;;4958970;28;89472;-71
2021/10/05 02:45:05;;;;;;;3.07;0.77;;;13.00;99.90;13.00;100410.00;;;;4942117;28;87776;-73
2021/10/05 02:47:30;;;;;;;2.30;1.20;;;13.00;99.90;12.90;100401.00;;;;4978049;28;88039;-71
2021/10/05 02:49:56;;;;;;;1.10;0.87;;;12.90;99.90;12.90;100396.00;;;;4974988;28;117739;-71
2021/10/05 02:52:23;;;;;;;0.93;0.77;;;12.90;99.90;12.90;100393.00;;;;4976916;28;117778;-70
2021/10/05 02:54:49;;;;;;;1.57;0.87;;;12.90;99.90;12.90;100388.00;;;;4977979;28;87790;-70
2021/10/05 02:57:17;;;;;;;1.00;0.60;;;13.20;99.90;12.90;100386.00;;;;4977234;28;87278;-71
2021/10/05 02:59:44;;;;;;;2.30;1.23;;;12.70;99.90;12.90;100386.00;;;;4938736;28;88195;-70
2021/10/05 03:02:10;;;;;;;1.97;1.27;;;12.90;99.90;12.90;100379.00;;;;4958042;28;88034;-70
2021/10/05 03:04:36;;;;;;;2.73;1.37;;;12.80;99.90;12.90;100372.00;;;;4975829;28;94665;-70
2021/10/05 03:07:03;;;;;;;1.17;1.07;;;12.80;99.90;12.90;100374.00;;;;4959160;28;87665;-70
2021/10/05 03:09:29;;;;;;;1.47;0.80;;;12.80;99.90;12.90;100365.00;;;;4958667;28;88037;-69
2021/10/05 03:11:55;;;;;;;3.23;1.40;;;12.80;99.90;12.90;100356.00;;;;4958107;28;103890;-69
2021/10/05 03:14:21;;;;;;;1.07;1.00;;;12.80;99.90;12.90;100366.00;;;;4960272;28;87921;-69
2021/10/05 03:16:47;;;;;;;2.53;1.30;;;12.90;99.90;12.90;100358.00;;;;4956798;28;109459;-68
2021/10/05 03:19:13;;;;;;;4.63;1.23;;;12.90;99.90;12.90;100344.00;;;;4955516;28;117858;-68
2021/10/05 03:21:40;;;;;;;1.30;1.20;;;12.90;99.90;12.90;100339.00;;;;4956415;28;119266;-69
2021/10/05 03:24:06;;;;;;;2.83;1.30;;;12.90;99.90;12.90;100325.00;;;;4957071;28;102459;-68
2021/10/05 03:26:32;;;;;;;0.93;0.90;;;12.90;99.90;12.90;100317.00;;;;4970014;28;94337;-68
2021/10/05 03:28:58;;;;;;;1.43;1.17;;;12.90;99.90;12.90;100308.00;;;;4976246;28;98311;-68
2021/10/05 03:31:24;;;;;;;2.40;1.17;;;12.90;99.90;12.90;100291.00;;;;4976544;28;117991;-70
2021/10/05 03:33:49;;;;;;;3.03;1.43;;;12.90;99.90;12.90;100278.00;;;;4976155;28;109688;-70
2021/10/05 03:36:16;;;;;;;1.73;1.33;;;12.90;99.90;12.90;100276.00;;;;4977149;28;88044;-68
2021/10/05 03:38:43;;;;;;;2.80;1.37;;;12.90;99.90;12.90;100267.00;;;;4975886;28;106634;-69
2021/10/05 03:41:11;;;;;;;7.20;1.80;;;12.90;99.90;12.90;100265.00;;;;4974217;28;89098;-69
2021/10/05 03:43:38;;;;;;;2.50;1.50;;;12.90;99.90;12.90;100262.00;;;;4956725;28;95756;-68
2021/10/05 03:46:05;;;;;;;3.70;1.50;;;12.90;99.90;12.90;100273.00;;;;4957477;28;87057;-68
2021/10/05 03:48:32;;;;;;;1.90;1.57;;;12.90;99.90;12.90;100271.00;;;;4938973;28;94400;-69
2021/10/05 03:50:57;;;;;;;2.23;1.73;;;12.90;99.90;12.90;100280.00;;;;4976826;28;89211;-69
2021/10/05 03:53:23;;;;;;;1.53;1.43;;;12.90;99.90;12.90;100260.00;;;;4970773;28;89235;-69
2021/10/05 03:55:53;;;;;;;2.87;1.27;;;13.00;99.90;12.90;100245.00;;;;4956962;28;87687;-66
2021/10/05 03:58:20;;;;;;;3.60;1.70;;;12.90;99.90;12.90;100229.00;;;;4938623;28;88109;-68
2021/10/05 04:00:47;;;;;;;2.60;1.80;;;12.90;99.90;12.90;100242.00;;;;4957416;28;88267;-69
2021/10/05 04:03:13;;;;;;;2.53;1.97;;;12.80;99.90;12.90;100234.00;;;;4956820;28;89620;-70
2021/10/05 04:05:39;;;;;;;2.97;1.87;;;12.80;99.90;12.90;100240.00;;;;4957137;28;87617;-69
2021/10/05 04:08:05;;;;;;;3.57;2.10;;;12.90;99.90;12.90;100234.00;;;;4921575;28;89387;-67
2021/10/05 04:10:31;;;;;;;2.50;1.97;;;12.90;99.90;12.90;100221.00;;;;4971333;28;88592;-68
2021/10/05 04:12:57;;;;;;;1.60;1.27;;;12.80;99.90;12.90;100217.00;;;;4981524;28;94550;-68
2021/10/05 04:15:23;;;;;;;1.70;1.53;;;12.90;99.90;12.90;100213.00;;;;4991978;28;87878;-68
2021/10/05 04:17:48;;;;;;;3.13;2.33;;;12.90;99.90;12.90;100203.00;;;;4987333;28;119651;-67
2021/10/05 04:20:14;;;;;;;5.93;2.63;;;12.90;99.90;12.90;100215.00;;;;4977019;28;93460;-67
2021/10/05 04:22:40;;;;;;;3.03;1.50;;;12.90;99.90;13.00;100218.00;;;;4957800;28;101592;-69
2021/10/05 04:25:08;;;;;;;3.27;2.60;;;12.90;99.90;13.00;100213.00;;;;4956855;28;87994;-67
2021/10/05 04:27:37;;;;;;;7.17;2.30;;;12.90;99.90;13.00;100219.00;;;;4958719;28;88253;-70
2021/10/05 04:30:06;;;;;;;2.13;1.93;;;12.90;99.90;13.00;100211.00;;;;4975893;28;88961;-70
2021/10/05 04:32:31;;;;;;;5.33;2.50;;;13.00;99.90;13.10;100214.00;;;;4976090;28;87899;-70
2021/10/05 04:34:57;;;;;;;5.37;2.70;;;13.00;99.90;13.10;100212.00;;;;4975885;28;109333;-68
2021/10/05 04:37:23;;;;;;;3.07;2.50;;;13.00;99.90;13.10;100218.00;;;;4975179;28;117469;-67
2021/10/05 04:39:49;;;;;;;5.07;2.87;;;13.10;99.90;13.20;100214.00;;;;4975546;28;104424;-67
2021/10/05 04:42:15;;;;;;;3.20;2.53;;;13.10;99.90;13.20;100199.00;;;;4976341;28;88806;-68
2021/10/05 04:44:40;;;;;;;4.03;3.00;;;13.10;99.90;13.20;100191.00;;;;4974607;28;107506;-67
2021/10/05 04:47:06;;;;;;;5.47;3.20;;;13.20;99.90;13.30;100194.00;;;;4975645;28;106065;-66
2021/10/05 04:49:33;;;;;;;5.37;3.00;;;13.20;99.90;13.30;100179.00;;;;4964996;28;87840;-68
2021/10/05 04:51:59;;;;;;;4.90;3.00;;;13.20;99.90;13.30;100173.00;;;;4955792;28;100420;-67
2021/10/05 04:54:25;;;;;;;3.47;2.00;;;13.30;99.90;13.30;100169.00;;;;4956826;28;91576;-66
2021/10/05 04:56:51;;;;;;;5.17;3.20;;;13.40;99.90;13.30;100167.00;;;;4955770;28;88791;-68
2021/10/05 04:59:18;;;;;;;5.30;2.60;;;13.30;99.90;13.40;100166.00;;;;4966471;28;88476;-67
2021/10/05 05:01:45;;;;;;;5.83;3.10;;;13.60;99.90;13.40;100160.00;;;;4956130;28;93303;-67
2021/10/05 05:04:10;;;;;;;5.87;2.97;;;13.30;99.90;13.40;100172.00;;;;4962750;28;87476;-66
2021/10/05 05:06:38;;;;;;;4.17;2.83;;;13.30;99.90;13.40;100169.00;;;;4975166;28;98574;-67
2021/10/05 05:09:05;;;;;;;3.77;2.40;;;13.40;99.90;13.40;100159.00;;;;4973403;28;88972;-69
2021/10/05 05:11:31;;;;;;;6.33;2.83;;;13.40;99.90;13.50;100149.00;;;;4957359;28;87911;-68
2021/10/05 05:14:05;;;;;;;3.53;2.77;;;13.40;99.90;13.50;100148.00;;;;4974919;28;88768;-69
2021/10/05 05:16:31;;;;;;;3.33;2.17;;;13.40;99.90;13.50;100147.00;;;;4971762;28;88068;-68
2021/10/05 05:18:57;;;;;;;5.43;2.93;;;13.40;99.90;13.50;100137.00;;;;4955680;28;88671;-69
2021/10/05 05:21:22;;;;;;;3.43;3.10;;;13.40;99.90;13.60;100131.00;;;;4955933;28;111192;-68
2021/10/05 05:23:49;;;;;;;4.67;2.57;;;13.50;99.90;13.60;100129.00;;;;4955295;28;109291;-69
2021/10/05 05:26:15;;;;;;;2.90;2.57;;;13.50;99.90;13.60;100126.00;;;;4955237;28;87757;-69
2021/10/05 05:28:41;;;;;;;8.67;3.87;;;13.60;99.90;13.70;100125.00;;;;4936883;28;92221;-69
2021/10/05 05:31:06;;;;;;;2.60;2.30;;;13.60;99.90;13.70;100128.00;;;;4936779;28;93979;-69
2021/10/05 05:33:32;;;;;;;4.93;2.90;;;13.60;99.90;13.70;100117.00;;;;4955670;28;87751;-69
2021/10/05 05:36:01;;;;;;;3.67;2.53;;;13.60;99.90;13.70;100118.00;;;;4955489;28;89428;-69
2021/10/05 05:38:26;;;;;;;2.40;2.17;;;13.70;99.90;13.70;100110.00;;;;4935771;28;117429;-68
2021/10/05 05:40:53;;;;;;;3.97;2.77;;;13.70;99.90;13.80;100102.00;;;;4954546;28;109786;-67
2021/10/05 05:43:19;;;;;;;3.40;2.73;;;13.70;99.90;13.80;100103.00;;;;4955257;28;88090;-69
2021/10/05 05:45:45;;;;;;;5.20;2.87;;;13.70;99.90;13.80;100097.00;;;;4956419;28;88972;-69
2021/10/05 05:48:11;;;;;;;4.30;3.10;;;13.70;99.90;13.80;100101.00;;;;4955278;28;96824;-67
2021/10/05 05:50:37;;;;;;;6.03;3.20;;;13.70;99.90;13.80;100102.00;;;;4956514;28;108460;-67
2021/10/05 05:53:03;;;;;;;6.37;3.80;;;13.70;99.90;13.80;100100.00;;;;4955583;28;88022;-68
2021/10/05 05:55:28;;;;;;;4.63;3.13;;;13.70;99.90;13.80;100097.00;;;;4954131;28;95791;-68
2021/10/05 05:57:54;;;;;;;5.87;3.00;;;13.80;99.90;13.80;100092.00;;;;4955382;28;117636;-67
2021/10/05 06:00:21;;;;;;;4.10;2.97;;;13.80;99.90;13.80;100090.00;;;;4961302;28;87927;-67
2021/10/05 06:02:47;;;;;;;6.30;3.67;;;13.80;99.90;13.80;100090.00;;;;4955246;28;87901;-69
2021/10/05 06:05:14;;;;;;;6.77;4.27;;;13.80;99.90;13.90;100085.00;;;;4937011;28;88153;-69
2021/10/05 06:07:40;;;;;;;5.93;3.17;;;13.80;99.90;13.90;100070.00;;;;4955002;28;87774;-69
2021/10/05 06:10:07;;;;;;;5.00;3.33;;;13.80;99.90;13.90;100073.00;;;;4955151;28;87579;-69
2021/10/05 06:12:39;;;;;;;4.97;3.67;;;13.80;99.90;13.90;100074.00;;;;4967150;28;86804;-67
2021/10/05 06:15:12;;;;;;;4.50;3.60;;;13.90;99.90;14.00;100064.00;;;;4977676;28;88187;-66
2021/10/05 06:17:40;;;;;;;4.47;3.40;;;13.90;99.90;14.00;100070.00;;;;4978430;28;87895;-67
2021/10/05 06:20:13;;;;;;;5.87;3.93;;;13.90;99.90;14.00;100066.00;;;;4976233;28;88808;-66
2021/10/05 06:22:39;;;;;;;6.93;4.20;;;13.90;99.90;14.10;100055.00;;;;4978940;28;87859;-66
2021/10/05 06:25:08;;;;;;;5.10;3.83;;;14.00;99.90;14.10;100052.00;;;;4977210;28;98542;-68
2021/10/05 06:27:34;;;;;;;4.77;4.23;;;14.10;99.90;14.20;100059.00;;;;4975730;28;88032;-68
2021/10/05 06:30:00;;;;;;;6.03;4.47;;;14.10;99.90;14.20;100056.00;;;;4957336;28;111666;-68
2021/10/05 06:32:26;;;;;;;5.63;4.23;;;14.10;99.90;14.30;100041.00;;;;4962416;28;87764;-68
2021/10/05 06:34:53;;;;;;;8.73;6.60;;;14.20;99.90;14.30;100034.00;;;;4976187;28;89517;-68
2021/10/05 06:37:19;;;;;;;9.30;4.90;;;14.20;99.90;14.40;100036.00;;;;4929253;28;105761;-65
2021/10/05 06:39:45;;;;;;;5.60;4.00;;;14.30;99.90;14.40;100043.00;;;;4970106;28;87822;-66
2021/10/05 06:42:11;;;;;;;7.43;4.83;;;14.30;99.90;14.50;100039.00;;;;4958767;28;87639;-67
2021/10/05 06:44:38;;;;;;;8.07;4.50;;;14.40;99.90;14.50;100025.00;;;;4962966;28;89304;-66
2021/10/05 06:47:04;;;;;;;7.47;4.33;;;14.40;99.90;14.60;100018.00;;;;4977608;28;89001;-64
2021/10/05 06:49:30;;;;;;;7.80;4.93;;;14.60;99.90;14.60;100017.00;;;;4974081;28;87795;-65
2021/10/05 06:51:55;;;;;;;7.37;4.93;;;14.50;99.90;14.70;100014.00;;;;4958479;28;107826;-64
2021/10/05 06:54:21;;;;;;;10.00;5.30;;;14.50;99.90;14.70;100013.00;;;;4956529;28;117939;-66
2021/10/05 06:56:48;;;;;;;9.23;5.53;;;14.60;99.90;14.70;100019.00;;;;4957765;28;116250;-66
2021/10/05 06:59:13;;;;;;;8.65;6.03;;;14.60;99.90;14.80;100012.00;;;;4939047;28;90331;-65
2021/10/05 07:01:39;;;;;;;8.63;5.80;;;14.70;99.90;14.90;100016.00;;;;4957948;28;108949;-65
2021/10/05 07:04:05;;;;;;;6.93;4.68;;;14.80;99.90;14.90;100017.00;;;;4957900;28;117766;-65
2021/10/05 07:06:30;;;;;;;10.73;5.90;;;14.80;99.90;15.00;100004.00;;;;4967029;28;116491;-65
2021/10/05 07:08:57;;;;;;;7.75;5.28;;;14.90;99.90;15.10;99998.00;;;;4973230;28;109906;-67
2021/10/05 07:11:23;;;;;;;9.50;6.13;;;15.00;99.90;15.10;99991.00;;;;4977646;28;87859;-65
2021/10/05 07:13:49;;;;;;;7.50;5.63;;;15.00;99.90;15.20;99978.00;;;;4977308;28;88921;-65
2021/10/05 07:16:15;;;;;;;11.30;6.90;;;15.00;99.90;15.20;99971.00;;;;4977610;28;88513;-66
2021/10/05 07:18:40;;;;;;;9.27;5.97;;;15.10;99.90;15.20;99973.00;;;;4975913;28;110609;-66
2021/10/05 07:21:06;;;;;;;10.95;6.80;;;15.10;99.90;15.30;99976.00;;;;4976525;28;99161;-66
2021/10/05 07:23:32;;;;;;;9.45;5.60;;;15.10;99.90;15.30;99969.00;;;;4975627;28;99089;-65
2021/10/05 07:25:57;;;;;;;8.07;6.97;;;15.20;99.90;15.40;99964.00;;;;4974092;28;86971;-67
2021/10/05 07:28:23;;;;;;;11.05;6.15;;;15.20;99.90;15.50;99966.00;;;;4956881;28;111303;-66
2021/10/05 07:30:49;;;;;;;12.52;7.50;;;15.30;99.90;15.60;99970.00;;;;4956690;28;102946;-66
2021/10/05 07:33:15;;;;;;;10.65;7.25;;;15.40;99.90;15.60;99980.00;;;;4957198;28;118649;-67
2021/10/05 07:35:41;;;;;;;17.60;8.10;;;15.40;99.90;15.60;99984.00;;;;4962511;28;88748;-67
2021/10/05 07:38:07;;;;;;;13.07;7.80;;;15.50;99.90;15.70;99987.00;;;;4960246;28;87728;-66
2021/10/05 07:40:33;;;;;;;10.13;6.53;;;15.50;99.90;15.70;99977.00;;;;4957443;28;87619;-66
2021/10/05 07:43:02;;;;;;;13.15;6.75;;;15.60;99.90;15.80;99979.00;;;;4958826;28;88032;-67
2021/10/05 07:45:30;;;;;;;8.65;6.55;;;15.60;99.90;15.80;99975.00;;;;4956518;28;88679;-66
2021/10/05 07:47:56;;;;;;;12.90;8.00;;;15.70;99.90;15.90;99982.00;;;;4957748;28;87468;-66
2021/10/05 07:50:23;;;;;;;16.63;8.82;;;15.70;99.90;15.90;99971.00;;;;4958434;28;87068;-66
2021/10/05 07:52:49;;;;;;;14.32;9.00;;;15.70;99.90;15.90;99983.00;;;;4939136;28;88048;-65
2021/10/05 07:55:15;;;;;;;11.30;7.40;;;15.80;99.90;15.90;99968.00;;;;4956622;28;88660;-66
2021/10/05 07:57:42;;;;;;;12.82;7.68;;;15.80;99.90;16.00;99964.00;;;;4957670;28;89091;-67
2021/10/05 08:00:09;;;;;;;15.95;7.85;;;15.90;99.90;16.00;99960.00;;;;4957232;28;88063;-67
2021/10/05 08:02:35;;;;;;;13.75;8.25;;;15.90;99.90;16.00;99952.00;;;;4938945;28;87869;-68
2021/10/05 08:05:01;;;;;;;16.58;8.55;;;15.90;99.90;16.00;99954.00;;;;4956795;28;116686;-68
2021/10/05 08:07:27;;;;;;;12.75;7.57;;;15.90;99.90;16.00;99956.00;;;;4945401;28;87846;-66
2021/10/05 08:09:54;;;;;;;13.82;8.52;;;15.90;99.90;16.00;99945.00;;;;4979137;28;87711;-66
2021/10/05 08:12:21;;;;;;;12.45;7.28;;;15.90;99.90;16.10;99949.00;;;;4979305;28;88307;-66
2021/10/05 08:14:47;;;;;;;10.85;7.32;;;15.90;99.90;16.10;99948.00;;;;4977157;28;87531;-66
2021/10/05 08:17:13;;;;;;;15.00;7.93;;;16.00;99.90;16.10;99949.00;;;;4975976;28;93709;-66
2021/10/05 08:19:39;;;;;;;16.65;8.82;;;16.00;99.90;16.10;99941.00;;;;4975151;28;88384;-66
2021/10/05 08:22:05;;;;;;;9.23;7.53;;;16.00;99.90;16.10;99941.00;;;;4975764;28;89187;-66
2021/10/05 08:24:31;;;;;;;14.13;7.75;;;16.00;99.90;16.20;99935.00;;;;4976726;28;89430;-66
2021/10/05 08:26:57;;;;;;;18.25;8.25;;;16.00;99.90;16.20;99927.00;;;;4976369;28;87592;-66
2021/10/05 08:29:23;;;;;;;13.32;7.85;;;16.40;99.90;16.30;99926.00;;;;4960736;28;89973;-66
2021/10/05 08:31:50;;;;;;;11.70;8.27;;;16.10;99.90;16.30;99917.00;;;;4964243;28;117703;-66
2021/10/05 08:34:18;;;;;;;16.30;7.63;;;16.20;99.90;16.30;99915.00;;;;4975678;28;88958;-66
2021/10/05 08:36:44;;;;;;;14.27;8.02;;;16.20;99.90;16.40;99923.00;;;;4976289;28;87747;-66
2021/10/05 08:39:10;;;;;;;13.23;7.50;;;16.20;99.90;16.50;99916.00;;;;4975070;28;87076;-67
2021/10/05 08:41:38;;;;;;;14.20;7.75;;;16.30;99.90;16.50;99921.00;;;;4976140;28;88754;-66
2021/10/05 08:44:04;;;;;;;13.35;8.90;;;16.40;99.90;16.60;99920.00;;;;4975969;28;88098;-67
2021/10/05 08:46:35;;;;;;;11.93;8.25;;;16.40;99.90;16.60;99924.00;;;;4973946;28;88695;-67
2021/10/05 08:49:01;;;;;;;10.75;7.60;;;16.50;99.90;16.70;99911.00;;;;4955903;28;87965;-67
2021/10/05 08:51:27;;;;;;;14.73;7.65;;;16.50;99.90;16.70;99904.00;;;;4975417;28;98377;-66
2021/10/05 08:53:53;;;;;;;15.68;9.27;;;16.50;99.90;16.80;99904.00;;;;4973729;28;117391;-67
2021/10/05 08:56:19;;;;;;;14.15;7.10;;;16.60;99.90;16.80;99907.00;;;;4969811;28;109642;-68
2021/10/05 08:58:44;;;;;;;16.48;9.00;;;16.60;99.90;16.90;99898.00;;;;4973359;28;108816;-67
2021/10/05 09:01:16;;;;;;;12.05;7.45;;;16.70;99.90;17.00;99897.00;;;;4973640;28;107386;-67
2021/10/05 09:03:54;;;;;;;15.15;8.43;;;16.80;99.90;17.20;99886.00;;;;4956985;28;87423;-67
2021/10/05 09:06:23;;;;;;;10.73;7.28;;;16.90;99.90;17.30;99889.00;;;;4975830;28;87768;-67
2021/10/05 09:08:53;;;;;;;15.80;8.40;;;17.10;99.90;17.40;99897.00;;;;4974777;28;87778;-67
2021/10/05 09:11:24;;;;;;;14.55;7.80;;;17.20;99.90;17.50;99893.00;;;;4975455;28;89565;-67
2021/10/05 09:13:56;;;;;;;13.32;7.47;;;17.30;99.90;17.50;99894.00;;;;4964957;28;88689;-67
2021/10/05 09:16:29;;;;;;;13.98;8.27;;;17.30;99.90;17.50;99878.00;;;;4955916;28;87957;-67
2021/10/05 09:19:04;;;;;;;11.15;8.15;;;17.40;99.90;17.60;99882.00;;;;4955874;28;87854;-65
2021/10/05 09:21:38;;;;;;;10.77;7.68;;;17.40;99.90;17.70;99884.00;;;;4956057;28;87729;-67
2021/10/05 09:24:15;;;;;;;13.27;7.35;;;17.50;99.90;17.80;99875.00;;;;4964317;28;87701;-66
2021/10/05 09:26:51;;;;;;;14.18;7.90;;;17.50;99.90;17.90;99863.00;;;;4956568;28;96408;-65
2021/10/05 09:29:24;;;;;;;12.70;7.35;;;17.70;99.90;18.00;99866.00;;;;4975274;28;87207;-65
2021/10/05 09:31:59;;;;;;;9.25;6.80;;;17.80;99.90;18.10;99849.00;;;;4975739;28;87709;-65
2021/10/05 09:34:46;;;;;;;10.90;6.88;;;17.90;99.90;18.20;99855.00;;;;4974914;28;87808;-65
2021/10/05 09:37:21;;;;;;;10.50;6.97;;;18.00;99.90;18.30;99847.00;;;;4975195;28;88542;-65
2021/10/05 09:40:07;;;;;;;13.10;7.55;;;18.10;99.90;18.40;99846.00;;;;4975145;28;87827;-64
2021/10/05 09:42:48;;;;;;;9.98;6.50;;;18.10;99.90;18.40;99845.00;;;;4975221;28;87840;-65
2021/10/05 09:45:16;;;;;;;10.65;6.38;;;18.20;99.90;18.40;99859.00;;;;4955283;28;88527;-66
2021/10/05 09:47:48;;;;;;;8.48;6.68;;;18.20;99.90;18.40;99843.00;;;;4959803;28;87966;-65
2021/10/05 09:50:15;;;;;;;11.85;6.50;;;18.20;99.90;18.40;99849.00;;;;4976473;28;87727;-65
2021/10/05 09:53:02;;;;;;;13.00;6.78;;;18.20;99.90;18.30;99845.00;;;;4962808;28;88685;-65
2021/10/05 09:55:41;;;;;;;11.55;7.13;;;18.20;99.90;18.40;99836.00;;;;4929108;28;87594;-64
2021/10/05 09:58:09;;;;;;;9.63;6.45;;;18.20;99.90;18.40;99838.00;;;;4963987;28;87768;-65
2021/10/05 10:00:43;;;;;;;13.57;7.15;;;18.20;99.90;18.50;99841.00;;;;4972820;28;87517;-65
2021/10/05 10:03:08;;;;;;;11.13;6.38;;;18.40;99.90;18.50;99835.00;;;;4957763;28;104501;-65
2021/10/05 10:05:38;;;;;;;11.05;6.10;;;18.30;99.90;18.60;99848.00;;;;4958782;28;118247;-65
2021/10/05 10:08:05;;;;;;;10.05;6.43;;;18.40;99.90;18.60;99849.00;;;;4958751;28;87868;-67
2021/10/05 10:10:38;;;;;;;8.93;5.97;;;18.40;99.90;18.60;99850.00;;;;4958666;28;87656;-67
2021/10/05 10:13:08;;;;;;;12.45;6.88;;;18.40;99.90;18.60;99856.00;;;;4956202;28;89335;-66
2021/10/05 10:15:37;;;;;;;7.95;6.03;;;18.40;99.90;18.50;99855.00;;;;4968583;28;89278;-66
2021/10/05 10:18:15;;;;;;;9.52;5.95;;;18.40;99.90;18.50;99845.00;;;;4958172;28;93744;-66
2021/10/05 10:20:53;;;;;;;10.07;6.45;;;18.40;99.90;18.60;99846.00;;;;4977148;28;87215;-65
2021/10/05 10:23:22;;;;;;;7.25;5.38;;;18.40;99.90;18.60;99847.00;;;;4960361;28;88926;-66
2021/10/05 10:26:05;;;;;;;9.15;6.72;;;18.40;99.90;18.50;99843.00;;;;4959670;28;87987;-65
2021/10/05 10:28:33;;;;;;;7.50;5.93;;;18.40;99.90;18.50;99843.00;;;;4962411;28;88848;-66
2021/10/05 10:31:04;;;;;;;8.05;5.53;;;18.40;99.90;18.50;99835.00;;;;4958481;28;87750;-66
2021/10/05 10:33:49;;;;;;;6.15;4.60;;;18.30;99.90;18.40;99833.00;;;;4966072;28;87608;-65
2021/10/05 10:36:32;;;;;;;9.82;6.50;;;18.30;99.90;18.50;99836.00;;;;4977402;28;102670;-64
2021/10/05 10:39:14;;;;;;;8.15;5.70;;;18.30;99.90;18.50;99846.00;;;;4977802;28;87741;-65
2021/10/05 10:41:44;;;;;;;6.70;5.38;;;18.80;99.90;18.60;99839.00;;;;4971003;28;87905;-65
2021/10/05 10:44:12;;;;;;;10.77;5.60;;;18.40;99.90;18.70;99839.00;;;;4958345;28;88876;-65
2021/10/05 10:46:40;;;;;;;9.57;6.35;;;18.50;99.90;18.80;99833.00;;;;4961200;28;87355;-66